Time;durP1;ratioP1;P1;durP2;ratioP2;P2;SDS_P1;SDS_P2;PMS_P1;PMS_P2;Temp;Humidity;BMP_temperature;BMP_pressure;BME280_temperature;BME280_humidity;BME280_pressure;Samples;Min_cycle;Max_cycle;Signal;HPM_P1;HPM_P2
2022/12/07 00:00:22;;;;;;;7.35;1.25;;;5.30;99.90;;;;;;6220432;22;20024;-90
2022/12/07 00:02:56;;;;;;;5.38;1.48;;;4.80;99.90;;;;;;6198344;22;20016;-91
2022/12/07 00:05:35;;;;;;;9.75;2.22;;;4.70;99.90;;;;;;6221292;22;20027;-89
2022/12/07 00:08:06;;;;;;;5.68;1.08;;;4.60;99.90;;;;;;6196552;22;20045;-90
2022/12/07 00:10:34;;;;;;;12.00;1.92;;;4.70;99.90;;;;;;6220864;22;20019;-89
2022/12/07 00:13:01;;;;;;;10.75;1.55;;;4.80;99.90;;;;;;6220222;22;20027;-90
2022/12/07 00:15:27;;;;;;;8.77;1.83;;;4.90;99.90;;;;;;6220599;22;20016;-91
2022/12/07 00:17:59;;;;;;;9.88;1.80;;;5.30;99.90;;;;;;6246939;22;20015;-89
2022/12/07 00:20:33;;;;;;;11.00;1.60;;;4.60;99.90;;;;;;6197586;22;20020;-90
2022/12/07 00:23:01;;;;;;;6.88;1.65;;;5.50;99.90;;;;;;6195708;22;21035;-89
2022/12/07 00:25:33;;;;;;;6.97;1.38;;;4.60;99.90;;;;;;6220246;22;20452;-90
2022/12/07 00:27:59;;;;;;;9.63;1.42;;;4.70;99.90;;;;;;6220368;22;20099;-89
2022/12/07 00:30:25;;;;;;;6.60;1.23;;;4.70;99.90;;;;;;6170643;22;20099;-91
2022/12/07 00:32:52;;;;;;;11.95;1.80;;;4.70;99.90;;;;;;6246092;22;20011;-89
2022/12/07 00:35:38;;;;;;;8.00;1.42;;;4.80;99.90;;;;;;6222178;22;20096;-90
2022/12/07 00:38:07;;;;;;;9.98;1.77;;;;;;;;;;6221822;22;20020;-89
2022/12/07 00:40:36;;;;;;;5.22;1.40;;;4.90;99.90;;;;;;6221466;22;20019;-91
2022/12/07 00:43:02;;;;;;;6.78;1.45;;;5.10;99.90;;;;;;6220506;22;20020;-89
2022/12/07 00:45:36;;;;;;;7.18;1.23;;;5.00;99.90;;;;;;6220422;22;20153;-91
2022/12/07 00:48:02;;;;;;;5.93;1.30;;;4.90;99.90;;;;;;6194949;22;20103;-90
2022/12/07 00:50:28;;;;;;;6.63;1.45;;;5.00;99.90;;;;;;6220080;22;20011;-90
2022/12/07 00:53:01;;;;;;;7.57;1.25;;;5.10;99.90;;;;;;6219828;22;20023;-90
2022/12/07 00:55:27;;;;;;;6.57;1.27;;;5.80;99.90;;;;;;6195620;22;20077;-90
2022/12/07 00:57:55;;;;;;;8.07;1.40;;;5.00;99.90;;;;;;6220105;22;20068;-91
2022/12/07 01:00:23;;;;;;;6.38;1.10;;;;;;;;;;6220112;22;20075;-89
2022/12/07 01:02:52;;;;;;;5.57;1.15;;;4.90;99.90;;;;;;6220132;22;20319;-90
2022/12/07 01:05:23;;;;;;;6.05;1.23;;;4.90;99.90;;;;;;6220248;22;20331;-90
2022/12/07 01:08:01;;;;;;;5.05;1.20;;;;;;;;;;6198602;22;20020;-91
2022/12/07 01:10:36;;;;;;;8.63;1.60;;;4.90;99.90;;;;;;6220313;22;20027;-89
2022/12/07 01:13:11;;;;;;;7.70;1.27;;;5.00;99.90;;;;;;6219520;22;20077;-90
2022/12/07 01:15:46;;;;;;;7.07;1.48;;;4.90;99.90;;;;;;6245159;22;20107;-90
2022/12/07 01:18:19;;;;;;;4.50;1.50;;;5.00;99.90;;;;;;6195178;22;20047;-90
2022/12/07 01:20:56;;;;;;;11.20;1.58;;;6.60;99.90;;;;;;6196603;22;20019;-90
2022/12/07 01:23:27;;;;;;;4.47;1.42;;;4.80;99.90;;;;;;6272272;22;20055;-88
2022/12/07 01:26:06;;;;;;;8.60;1.80;;;5.70;99.90;;;;;;6244797;22;20069;-91
2022/12/07 01:28:34;;;;;;;10.68;1.67;;;5.30;99.90;;;;;;6218507;22;20312;-90
2022/12/07 01:31:14;;;;;;;11.45;1.90;;;5.30;99.90;;;;;;6219275;22;20031;-90
2022/12/07 01:33:42;;;;;;;13.55;1.73;;;4.80;99.90;;;;;;6219346;22;20030;-90
2022/12/07 01:36:21;;;;;;;7.05;1.67;;;5.00;99.90;;;;;;6219576;22;20091;-88
2022/12/07 01:38:51;;;;;;;6.03;1.23;;;5.20;99.90;;;;;;6220320;22;20053;-90
2022/12/07 01:41:20;;;;;;;14.30;1.48;;;5.00;99.90;;;;;;6220058;22;20020;-90
2022/12/07 01:44:13;;;;;;;6.60;1.20;;;5.00;99.90;;;;;;6218966;22;20170;-90
2022/12/07 01:46:46;;;;;;;5.78;1.67;;;4.90;99.90;;;;;;6219952;22;20093;-89
2022/12/07 01:49:18;;;;;;;4.63;0.98;;;3.90;99.90;;;;;;6220120;22;20058;-90
2022/12/07 01:51:49;;;;;;;3.97;1.00;;;4.80;99.90;;;;;;6244928;22;20106;-90
2022/12/07 01:54:27;;;;;;;;;;;;;;;;;;;;;
2022/12/07 01:57:09;;;;;;;;;;;;;;;;;;;;;
2022/12/07 01:59:52;;;;;;;6.80;1.10;;;5.20;99.90;;;;;;6242506;22;20334;-89
2022/12/07 02:02:55;;;;;;;4.88;1.00;;;5.40;99.90;;;;;;6242384;22;20094;-90
2022/12/07 02:05:25;;;;;;;4.45;1.33;;;4.80;99.90;;;;;;6210216;22;20023;-89
2022/12/07 02:07:57;;;;;;;7.35;1.25;;;4.90;99.90;;;;;;6216017;22;20115;-90
2022/12/07 02:10:31;;;;;;;8.23;1.40;;;6.20;99.90;;;;;;6216620;22;20071;-90
2022/12/07 02:13:23;;;;;;;;;;;;;;;;;;;;;
2022/12/07 02:15:54;;;;;;;9.20;1.73;;;5.10;99.90;;;;;;6219799;22;20034;-89
2022/12/07 02:18:40;;;;;;;8.00;1.38;;;5.00;99.90;;;;;;6219740;22;20111;-90
2022/12/07 02:21:27;;;;;;;11.20;1.67;;;4.90;99.90;;;;;;6178687;22;20047;-88
2022/12/07 02:24:15;;;;;;;;;;;;;;;;;;;;;
2022/12/07 02:27:13;;;;;;;5.78;1.42;;;5.00;99.90;;;;;;6244963;22;20034;-90
2022/12/07 02:29:53;;;;;;;6.57;1.52;;;5.10;99.90;;;;;;6202739;22;20027;-89
2022/12/07 02:32:40;;;;;;;7.53;1.50;;;4.90;99.90;;;;;;6219544;22;20067;-89
2022/12/07 02:35:33;;;;;;;8.13;1.33;;;4.90;99.90;;;;;;6219523;22;20055;-89
2022/12/07 02:38:17;;;;;;;5.15;1.33;;;4.90;99.90;;;;;;6153171;22;20012;-88
2022/12/07 02:41:12;;;;;;;9.52;1.40;;;5.10;99.90;;;;;;6221146;22;20016;-90
2022/12/07 02:43:53;;;;;;;5.18;1.23;;;4.90;99.90;;;;;;6246121;22;20019;-90
2022/12/07 02:46:37;;;;;;;3.92;1.42;;;5.60;99.90;;;;;;6224351;22;20506;-89
2022/12/07 02:49:07;;;;;;;4.70;1.10;;;5.00;99.90;;;;;;6201988;22;20435;-90
2022/12/07 02:51:34;;;;;;;4.88;1.20;;;4.70;99.90;;;;;;6249776;22;20015;-90
2022/12/07 02:54:01;;;;;;;6.55;1.05;;;4.70;99.90;;;;;;6222011;22;20102;-89
2022/12/07 02:56:47;;;;;;;4.80;1.25;;;5.40;99.90;;;;;;6222940;22;20069;-89
2022/12/07 02:59:35;;;;;;;5.28;1.42;;;4.60;99.90;;;;;;6248140;22;20019;-89
2022/12/07 03:02:16;;;;;;;7.63;1.30;;;3.20;99.90;;;;;;6222583;22;20062;-90
2022/12/07 03:04:54;;;;;;;7.15;1.70;;;5.90;99.90;;;;;;6221873;22;20090;-90
2022/12/07 03:07:45;;;;;;;8.75;1.50;;;4.50;99.90;;;;;;6221976;22;20467;-89
2022/12/07 03:10:46;;;;;;;7.57;1.30;;;4.60;99.90;;;;;;6221293;22;20026;-89
2022/12/07 03:14:05;;;;;;;6.10;1.40;;;3.40;99.90;;;;;;6094739;23;20464;-90
2022/12/07 03:16:58;;;;;;;8.93;1.85;;;4.50;99.90;;;;;;6246430;22;20043;-89
2022/12/07 03:19:29;;;;;;;8.52;2.45;;;3.60;99.90;;;;;;6220998;22;20457;-90
2022/12/07 03:22:05;;;;;;;10.43;2.03;;;4.50;99.90;;;;;;6220663;22;20027;-89
2022/12/07 03:24:47;;;;;;;;;;;5.50;99.90;;;;;;6221296;22;20103;-90
2022/12/07 03:27:34;;;;;;;;;;;;;;;;;;;;;
2022/12/07 03:30:10;;;;;;;8.38;1.73;;;2.90;99.90;;;;;;6244995;22;20016;-90
2022/12/07 03:33:07;;;;;;;5.43;1.42;;;4.50;99.90;;;;;;6218691;22;20020;-90
2022/12/07 03:35:39;;;;;;;;;;;3.10;99.90;;;;;;6243943;22;20297;-90
2022/12/07 03:38:48;;;;;;;9.98;1.50;;;4.30;99.90;;;;;;6219298;22;19923;-91
2022/12/07 03:41:24;;;;;;;6.45;1.33;;;4.40;99.90;;;;;;6184953;22;20024;-90
2022/12/07 03:43:55;;;;;;;11.20;1.45;;;4.60;99.90;;;;;;6218770;22;20031;-90
2022/12/07 03:46:57;;;;;;;9.82;2.17;;;4.40;99.90;;;;;;6194578;22;20016;-90
2022/12/07 03:49:29;;;;;;;11.48;1.65;;;4.40;99.90;;;;;;6188654;22;20020;-89
2022/12/07 03:52:20;;;;;;;7.88;1.70;;;2.90;99.90;;;;;;6219691;22;20027;-89
2022/12/07 03:54:56;;;;;;;8.18;1.25;;;4.40;99.90;;;;;;6220314;22;20024;-90
2022/12/07 03:57:26;;;;;;;8.63;1.40;;;4.50;99.90;;;;;;6221050;22;20121;-90
2022/12/07 03:59:59;;;;;;;8.23;1.50;;;4.40;99.90;;;;;;6245515;22;20016;-90
2022/12/07 04:02:37;;;;;;;7.68;1.27;;;3.60;99.90;;;;;;6220721;22;20020;-90
2022/12/07 04:05:09;;;;;;;6.65;1.20;;;4.60;99.90;;;;;;6194422;22;20515;-90
2022/12/07 04:07:40;;;;;;;3.47;0.90;;;4.80;99.90;;;;;;6220294;22;20015;-90
2022/12/07 04:10:11;;;;;;;4.93;0.93;;;3.60;99.90;;;;;;6172457;22;20020;-89
2022/12/07 04:12:43;;;;;;;3.85;1.20;;;3.40;99.90;;;;;;6272566;22;20015;-89
2022/12/07 04:15:13;;;;;;;6.68;1.08;;;4.60;99.90;;;;;;6244137;22;20019;-89
2022/12/07 04:17:41;;;;;;;3.83;0.90;;;3.70;99.90;;;;;;6193750;22;20055;-89
2022/12/07 04:20:17;;;;;;;6.90;1.20;;;4.60;99.90;;;;;;6219447;22;20016;-90
2022/12/07 04:22:47;;;;;;;4.45;1.50;;;4.40;99.90;;;;;;6192996;22;20020;-90
2022/12/07 04:25:18;;;;;;;4.47;0.73;;;4.70;99.90;;;;;;6217468;22;20023;-90
2022/12/07 04:27:54;;;;;;;4.28;0.90;;;4.50;99.90;;;;;;6217648;22;20087;-88
2022/12/07 04:30:28;;;;;;;7.07;1.17;;;4.60;99.90;;;;;;6196579;22;20024;-90
2022/12/07 04:32:59;;;;;;;5.18;1.10;;;3.80;99.90;;;;;;6195607;22;20525;-89
2022/12/07 04:35:31;;;;;;;5.57;1.20;;;4.60;99.90;;;;;;6195009;22;20016;-89
2022/12/07 04:37:59;;;;;;;4.55;1.05;;;4.60;99.90;;;;;;6193496;22;20695;-90
2022/12/07 04:40:33;;;;;;;3.38;0.90;;;4.80;99.90;;;;;;6218404;22;20109;-89
2022/12/07 04:43:02;;;;;;;6.28;1.17;;;4.60;99.90;;;;;;6195459;22;20027;-90
2022/12/07 04:45:31;;;;;;;2.75;0.75;;;4.90;99.90;;;;;;6219403;22;20019;-91
2022/12/07 04:47:59;;;;;;;3.90;0.77;;;4.80;99.90;;;;;;6219066;22;20016;-89
2022/12/07 04:50:25;;;;;;;5.30;1.15;;;6.00;99.90;;;;;;6220458;22;20020;-89
2022/12/07 04:52:54;;;;;;;3.00;1.13;;;6.40;99.90;;;;;;6217321;22;20030;-88
2022/12/07 04:55:22;;;;;;;3.15;0.60;;;4.60;99.90;;;;;;6220051;22;20028;-86
2022/12/07 04:58:03;;;;;;;1.60;0.60;;;4.60;99.90;;;;;;6219475;22;20428;-88
2022/12/07 05:00:50;;;;;;;3.63;0.80;;;4.60;99.90;;;;;;6173868;22;20077;-89
2022/12/07 05:03:24;;;;;;;7.43;1.13;;;4.70;99.90;;;;;;6204172;22;20026;-91
2022/12/07 05:08:39;;;;;;;14.45;2.53;;;4.40;99.90;;;;;;6244850;22;20027;-91
2022/12/07 05:11:40;;;;;;;8.50;2.05;;;4.40;99.90;;;;;;6194648;22;20055;-92
2022/12/07 05:14:19;;;;;;;9.23;1.80;;;4.30;99.90;;;;;;6218379;22;20012;-90
2022/12/07 05:17:09;;;;;;;6.38;1.50;;;5.50;99.90;;;;;;6219811;22;20016;-91
2022/12/07 05:19:35;;;;;;;9.50;2.00;;;4.30;99.90;;;;;;6218885;22;20018;-92
2022/12/07 05:22:03;;;;;;;8.18;1.92;;;4.30;99.90;;;;;;6220258;22;20382;-91
2022/12/07 05:24:30;;;;;;;7.57;1.45;;;;;;;;;;6218763;22;20042;-92
2022/12/07 05:27:00;;;;;;;8.98;1.38;;;4.20;99.90;;;;;;6194842;22;20023;-92
2022/12/07 05:29:26;;;;;;;8.23;1.25;;;;;;;;;;6219467;22;20011;-92
2022/12/07 05:32:11;;;;;;;6.97;1.10;;;4.20;99.90;;;;;;6219871;22;20051;-90
2022/12/07 05:34:36;;;;;;;7.72;1.40;;;5.40;99.90;;;;;;6219179;22;20015;-91
2022/12/07 05:37:05;;;;;;;8.52;1.52;;;3.60;99.90;;;;;;6220005;22;20422;-90
2022/12/07 05:39:45;;;;;;;3.97;1.10;;;3.70;99.90;;;;;;6219844;22;20022;-91
2022/12/07 05:42:16;;;;;;;5.85;1.45;;;4.10;99.90;;;;;;6219234;22;20016;-91
2022/12/07 05:44:49;;;;;;;6.00;1.30;;;3.90;99.90;;;;;;6219136;22;20026;-91
2022/12/07 05:47:20;;;;;;;9.38;1.60;;;5.30;99.90;;;;;;6219897;22;20019;-90
2022/12/07 05:49:51;;;;;;;7.68;1.67;;;2.80;99.90;;;;;;6220424;22;20023;-91
2022/12/07 05:52:20;;;;;;;14.13;3.20;;;4.60;99.90;;;;;;6219767;22;20406;-90
2022/12/07 05:54:48;;;;;;;3.38;0.95;;;4.60;99.90;;;;;;6219989;22;20030;-92
2022/12/07 05:57:16;;;;;;;4.68;1.23;;;4.40;99.90;;;;;;6225794;22;20046;-90
2022/12/07 05:59:50;;;;;;;7.40;0.90;;;4.50;99.90;;;;;;6227875;22;20031;-90
2022/12/07 06:02:16;;;;;;;4.85;1.45;;;4.40;99.90;;;;;;6220582;22;20023;-91
2022/12/07 06:04:50;;;;;;;2.90;1.00;;;5.40;99.90;;;;;;6218927;22;20107;-91
2022/12/07 06:07:20;;;;;;;2.53;0.80;;;4.70;99.90;;;;;;6194343;22;20027;-91
2022/12/07 06:09:45;;;;;;;6.18;1.15;;;4.60;99.90;;;;;;6195091;22;20023;-90
2022/12/07 06:15:05;;;;;;;5.38;1.40;;;4.80;99.90;;;;;;6242089;22;20020;-91
2022/12/07 06:17:36;;;;;;;6.65;1.13;;;4.60;99.90;;;;;;6192067;22;20016;-92
2022/12/07 06:20:06;;;;;;;9.07;1.50;;;4.70;99.90;;;;;;6162645;23;20115;-91
2022/12/07 06:22:31;;;;;;;4.55;1.23;;;2.80;99.90;;;;;;6186485;23;20020;-90
2022/12/07 06:25:10;;;;;;;4.95;1.23;;;5.90;99.90;;;;;;6187646;23;20092;-90
2022/12/07 06:27:56;;;;;;;;;;;;;;;;;;;;;
2022/12/07 06:30:40;;;;;;;;;;;;;;;;;;;;;
2022/12/07 06:33:11;;;;;;;6.65;1.35;;;4.70;99.90;;;;;;6194259;23;20466;-91
2022/12/07 06:35:43;;;;;;;5.22;1.00;;;4.60;99.90;;;;;;6191949;23;20082;-90
2022/12/07 06:38:20;;;;;;;6.90;1.23;;;4.00;99.90;;;;;;6189680;23;20451;-89
2022/12/07 06:41:01;;;;;;;6.60;1.40;;;4.50;99.90;;;;;;6191197;23;20447;-90
2022/12/07 06:43:33;;;;;;;5.30;1.00;;;3.90;99.90;;;;;;6166757;23;20470;-89
2022/12/07 06:46:20;;;;;;;7.70;1.30;;;5.70;99.90;;;;;;6165838;23;20024;-91
2022/12/07 06:49:08;;;;;;;6.47;1.20;;;3.90;99.90;;;;;;6191439;23;20024;-91
2022/12/07 06:54:32;;;;;;;5.95;1.33;;;4.20;99.90;;;;;;6193341;23;20016;-90
2022/12/07 06:57:14;;;;;;;;;;;;;;;;;;;;;
2022/12/07 06:59:57;;;;;;;9.55;1.70;;;4.50;99.90;;;;;;6212219;23;20035;-91
2022/12/07 07:02:23;;;;;;;5.95;1.30;;;6.00;99.90;;;;;;6211731;23;20099;-87
2022/12/07 07:04:49;;;;;;;6.35;1.70;;;4.30;99.90;;;;;;6211097;23;20048;-89
2022/12/07 07:07:15;;;;;;;9.65;1.20;;;;;;;;;;6184747;23;20267;-86
2022/12/07 07:09:41;;;;;;;4.45;1.20;;;4.30;99.90;;;;;;6210151;23;20012;-90
2022/12/07 07:12:07;;;;;;;6.95;1.30;;;4.30;99.90;;;;;;6160960;23;20020;-90
2022/12/07 07:14:32;;;;;;;9.02;1.77;;;4.90;99.90;;;;;;6210230;23;20023;-89
2022/12/07 07:16:58;;;;;;;10.07;1.80;;;5.90;99.90;;;;;;6161898;23;20042;-90
2022/12/07 07:19:24;;;;;;;10.65;2.75;;;5.00;99.90;;;;;;6185648;23;20079;-89
2022/12/07 07:21:50;;;;;;;6.20;1.90;;;4.40;99.90;;;;;;6210246;23;20027;-88
2022/12/07 07:24:18;;;;;;;7.90;2.10;;;5.80;99.90;;;;;;6162368;23;20051;-90
2022/12/07 07:26:44;;;;;;;10.45;1.83;;;4.10;99.90;;;;;;6189078;23;20016;-89
2022/12/07 07:29:15;;;;;;;8.10;1.67;;;4.00;99.90;;;;;;6187943;23;20024;-89
2022/12/07 07:31:41;;;;;;;7.15;1.38;;;4.00;99.90;;;;;;6188318;23;20024;-90
2022/12/07 07:34:10;;;;;;;9.65;1.70;;;4.20;99.90;;;;;;6188067;23;20078;-91
2022/12/07 07:36:36;;;;;;;5.40;1.10;;;;;;;;;;6188247;23;20016;-87
2022/12/07 07:39:02;;;;;;;8.13;1.55;;;4.00;99.90;;;;;;6161655;23;20068;-89
2022/12/07 07:41:28;;;;;;;9.43;1.88;;;3.20;99.90;;;;;;6189135;23;20059;-92
2022/12/07 07:44:03;;;;;;;7.78;1.40;;;4.00;99.90;;;;;;6189275;23;20401;-89
2022/12/07 07:46:32;;;;;;;11.20;2.30;;;4.00;99.90;;;;;;6189085;23;20069;-88
2022/12/07 07:49:01;;;;;;;10.55;1.67;;;4.20;99.90;;;;;;6189944;23;20027;-92
2022/12/07 07:51:27;;;;;;;8.30;1.63;;;4.30;99.90;;;;;;6166535;23;20109;-89
2022/12/07 07:53:53;;;;;;;6.43;1.50;;;4.00;99.90;;;;;;6214527;23;20024;-89
2022/12/07 07:56:19;;;;;;;6.18;1.40;;;4.80;99.90;;;;;;6211443;23;20123;-91
2022/12/07 07:58:48;;;;;;;6.72;1.67;;;4.20;99.90;;;;;;6191784;23;20105;-90
2022/12/07 08:01:19;;;;;;;9.48;2.28;;;4.30;99.90;;;;;;6191071;23;20027;-94
2022/12/07 08:03:55;;;;;;;8.07;1.35;;;4.20;99.90;;;;;;6193902;23;20716;-95
2022/12/07 08:06:26;;;;;;;6.03;1.20;;;4.10;99.90;;;;;;6195261;23;20031;-95
2022/12/07 08:09:01;;;;;;;4.63;1.60;;;4.20;99.90;;;;;;6173455;23;20016;-95
2022/12/07 08:11:41;;;;;;;6.53;1.48;;;3.50;99.90;;;;;;6223110;23;20016;-94
2022/12/07 08:14:07;;;;;;;7.80;1.98;;;4.40;99.90;;;;;;6190686;23;20024;-92
2022/12/07 08:16:33;;;;;;;6.00;1.48;;;4.70;99.90;;;;;;6189080;23;20019;-92
2022/12/07 08:18:59;;;;;;;7.30;1.17;;;4.50;99.90;;;;;;6188477;23;20022;-88
2022/12/07 08:21:25;;;;;;;5.60;1.27;;;5.00;99.90;;;;;;6187601;23;20024;-89
2022/12/07 08:23:54;;;;;;;5.45;1.10;;;4.50;99.90;;;;;;6188266;23;20020;-91
2022/12/07 08:26:20;;;;;;;3.20;1.33;;;4.60;99.90;;;;;;6190665;23;20034;-93
2022/12/07 08:28:46;;;;;;;6.97;2.03;;;5.00;99.90;;;;;;6191626;23;20099;-92
2022/12/07 08:31:14;;;;;;;6.68;2.22;;;5.50;99.90;;;;;;6188419;23;20217;-91
2022/12/07 08:34:00;;;;;;;7.32;2.72;;;5.10;99.90;;;;;;6187115;23;20050;-90
2022/12/07 08:36:26;;;;;;;27.95;11.23;;;4.50;99.90;;;;;;6238750;23;20019;-90
2022/12/07 08:38:52;;;;;;;17.65;6.13;;;6.40;99.90;;;;;;6215347;23;20028;-92
2022/12/07 08:41:18;;;;;;;21.95;8.68;;;6.50;99.90;;;;;;6214528;23;20126;-92
2022/12/07 08:43:49;;;;;;;21.73;7.15;;;7.00;99.90;;;;;;6214824;23;20329;-92
2022/12/07 08:46:27;;;;;;;28.73;10.88;;;6.10;99.90;;;;;;6166300;23;20016;-90
2022/12/07 08:49:08;;;;;;;25.50;10.55;;;7.70;99.90;;;;;;6216665;23;20016;-90
2022/12/07 08:51:36;;;;;;;20.85;9.80;;;7.10;99.90;;;;;;6217175;23;20091;-90
2022/12/07 08:54:11;;;;;;;18.08;7.25;;;5.80;99.90;;;;;;6185517;23;20020;-90
2022/12/07 08:56:42;;;;;;;14.50;3.10;;;5.80;99.90;;;;;;6186628;23;20020;-93
2022/12/07 08:59:08;;;;;;;8.23;2.92;;;5.50;99.90;;;;;;6186712;23;20052;-93
2022/12/07 09:01:40;;;;;;;6.63;2.58;;;5.70;99.90;;;;;;6164438;23;20052;-90
2022/12/07 09:04:06;;;;;;;7.32;2.10;;;5.70;99.90;;;;;;6173061;23;20036;-90
2022/12/07 09:06:41;;;;;;;8.40;1.85;;;5.50;99.90;;;;;;6169245;23;20020;-91
2022/12/07 09:09:11;;;;;;;7.57;1.95;;;5.50;99.90;;;;;;6161442;23;20024;-91
2022/12/07 09:11:47;;;;;;;;;;;;;;;;;;;;;
2022/12/07 09:14:18;;;;;;;7.40;1.55;;;5.50;99.90;;;;;;6185846;23;20013;-89
2022/12/07 09:16:47;;;;;;;6.10;2.03;;;6.90;99.90;;;;;;6137411;23;20020;-91
2022/12/07 09:19:36;;;;;;;12.85;1.92;;;5.70;99.90;;;;;;6161584;23;20017;-90
2022/12/07 09:22:06;;;;;;;8.95;2.30;;;5.70;99.90;;;;;;6162020;23;20020;-89
2022/12/07 09:24:48;;;;;;;6.28;1.70;;;5.80;99.90;;;;;;6186577;23;20311;-89
2022/12/07 09:27:17;;;;;;;4.00;1.23;;;5.70;99.90;;;;;;6161585;23;20013;-88
2022/12/07 09:29:50;;;;;;;7.47;1.38;;;5.20;99.90;;;;;;6162165;23;20016;-91
2022/12/07 09:32:24;;;;;;;5.55;1.20;;;6.20;99.90;;;;;;6162265;23;20017;-92
2022/12/07 09:34:50;;;;;;;3.35;0.90;;;6.40;99.90;;;;;;6186110;23;20055;-90
2022/12/07 09:37:18;;;;;;;6.65;1.33;;;7.30;99.90;;;;;;6161410;23;20017;-91
2022/12/07 09:39:51;;;;;;;8.13;1.63;;;8.00;99.90;;;;;;6159852;23;20073;-90
2022/12/07 09:42:39;;;;;;;11.55;1.38;;;7.00;99.90;;;;;;6159761;23;20444;-91
2022/12/07 09:45:14;;;;;;;4.15;1.30;;;7.20;99.90;;;;;;6184698;23;20020;-91
2022/12/07 09:47:52;;;;;;;;;;;;;;;;;;;;;
2022/12/07 09:50:38;;;;;;;7.15;1.38;;;6.90;99.90;;;;;;6185416;23;20024;-90
2022/12/07 09:53:19;;;;;;;2.50;0.82;;;7.20;99.90;;;;;;6164226;23;20016;-89
2022/12/07 09:55:47;;;;;;;2.15;0.75;;;7.20;99.90;;;;;;6212390;23;20028;-86
2022/12/07 09:58:35;;;;;;;4.97;1.00;;;7.00;99.90;;;;;;6190673;23;20047;-88
2022/12/07 10:01:17;;;;;;;4.70;0.80;;;6.10;99.90;;;;;;6216374;23;20103;-89
2022/12/07 10:06:51;;;;;;;2.70;0.70;;;5.20;99.90;;;;;;6215908;23;20020;-90
2022/12/07 10:09:48;;;;;;;4.55;0.98;;;5.90;99.90;;;;;;6216673;23;20055;-91
2022/12/07 10:12:18;;;;;;;2.97;0.88;;;7.10;99.90;;;;;;6180270;23;20055;-91
2022/12/07 10:18:03;;;;;;;3.75;1.08;;;7.60;99.90;;;;;;6203929;23;20055;-89
2022/12/07 10:21:14;;;;;;;6.35;1.20;;;5.30;99.90;;;;;;6190388;23;20171;-90
2022/12/07 10:24:03;;;;;;;4.78;1.05;;;6.70;99.90;;;;;;6180550;23;20024;-88
2022/12/07 10:27:14;;;;;;;;;;;;;;;;;;;;;
2022/12/07 10:30:17;;;;;;;4.72;1.08;;;6.60;99.90;;;;;;6220961;23;20028;-91
2022/12/07 10:32:53;;;;;;;7.88;1.52;;;7.60;99.90;;;;;;6166562;23;20283;-91
2022/12/07 10:35:24;;;;;;;5.43;1.30;;;6.30;99.90;;;;;;6190369;23;20241;-90
2022/12/07 10:38:01;;;;;;;7.20;1.55;;;6.20;99.90;;;;;;6215500;23;20019;-89
2022/12/07 10:40:36;;;;;;;5.55;1.50;;;6.40;99.90;;;;;;6193645;23;20020;-89
2022/12/07 10:43:05;;;;;;;7.25;1.27;;;6.20;99.90;;;;;;6167349;23;20043;-89
2022/12/07 10:45:34;;;;;;;3.60;1.02;;;6.20;99.90;;;;;;6213458;23;20012;-91
2022/12/07 10:48:16;;;;;;;4.47;1.33;;;6.20;99.90;;;;;;6214579;23;20020;-89
2022/12/07 10:51:00;;;;;;;4.18;1.00;;;7.70;99.90;;;;;;6213805;23;20020;-90
2022/12/07 10:53:47;;;;;;;7.45;1.35;;;6.00;99.90;;;;;;6188811;23;20128;-91
2022/12/07 10:56:48;;;;;;;;;;;;;;;;;;;;;
2022/12/07 10:59:45;;;;;;;9.43;1.90;;;6.20;99.90;;;;;;6183023;23;20020;-90
2022/12/07 11:02:43;;;;;;;6.32;1.35;;;6.20;99.90;;;;;;6184971;23;20078;-91
2022/12/07 11:05:32;;;;;;;4.03;1.40;;;6.20;99.90;;;;;;6183657;23;20047;-90
2022/12/07 11:08:33;;;;;;;5.55;1.40;;;6.20;99.90;;;;;;6187253;23;20022;-88
2022/12/07 11:11:17;;;;;;;9.90;1.52;;;6.30;99.90;;;;;;6161056;23;20024;-92
2022/12/07 11:14:31;;;;;;;;;;;;;;;;;;;;;
2022/12/07 11:17:12;;;;;;;5.38;1.38;;;6.30;99.90;;;;;;6185155;23;20514;-89
2022/12/07 11:19:56;;;;;;;7.38;1.65;;;5.20;99.90;;;;;;6160533;23;20021;-92
2022/12/07 11:23:11;;;;;;;4.38;1.50;;;6.70;99.90;;;;;;6160147;23;20059;-91
2022/12/07 11:25:49;;;;;;;9.02;1.23;;;6.20;99.90;;;;;;6185423;23;20040;-93
2022/12/07 11:28:37;;;;;;;6.68;1.40;;;6.40;99.90;;;;;;6185018;23;20027;-93
2022/12/07 11:31:25;;;;;;;;;;;;;;;;;;;;;
2022/12/07 11:34:27;;;;;;;4.20;1.30;;;6.60;99.90;;;;;;6185698;23;20515;-92
2022/12/07 11:36:55;;;;;;;9.32;1.52;;;5.40;99.90;;;;;;6156583;23;20096;-94
2022/12/07 11:39:41;;;;;;;5.57;1.80;;;6.30;99.90;;;;;;6160978;23;20091;-93
2022/12/07 11:42:55;;;;;;;7.72;1.52;;;6.40;99.90;;;;;;6162286;23;20020;-93
2022/12/07 11:45:33;;;;;;;4.32;1.25;;;6.30;99.90;;;;;;6146526;23;20095;-92
2022/12/07 11:48:36;;;;;;;6.70;1.60;;;6.30;99.90;;;;;;6138435;23;20024;-92
2022/12/07 11:51:27;;;;;;;5.20;1.35;;;6.30;99.90;;;;;;6185675;23;20448;-91
2022/12/07 11:54:05;;;;;;;6.50;1.48;;;6.40;99.90;;;;;;6189079;22;20050;-91
2022/12/07 11:56:38;;;;;;;4.80;1.50;;;6.30;99.90;;;;;;6189391;23;20455;-91
2022/12/07 11:59:22;;;;;;;8.32;1.60;;;6.30;99.90;;;;;;6141249;23;20020;-93
2022/12/07 12:02:15;;;;;;;5.03;1.30;;;6.00;99.90;;;;;;6216653;23;20012;-92
2022/12/07 12:04:55;;;;;;;7.93;1.38;;;6.30;99.90;;;;;;6197985;23;20024;-93
2022/12/07 12:07:26;;;;;;;9.05;1.42;;;6.30;99.90;;;;;;6198710;23;20023;-91
2022/12/07 12:10:29;;;;;;;10.05;1.83;;;6.30;99.90;;;;;;6192132;23;20013;-90
2022/12/07 12:13:22;;;;;;;6.78;1.42;;;6.30;99.90;;;;;;6192152;23;20020;-92
2022/12/07 12:16:35;;;;;;;;;;;;;;;;;;;;;
2022/12/07 12:19:14;;;;;;;;;;;;;;;;;;;;;
2022/12/07 12:21:47;;;;;;;6.88;1.33;;;6.20;99.90;;;;;;6214866;23;20016;-85
2022/12/07 12:24:30;;;;;;;3.88;1.30;;;6.20;99.90;;;;;;6190568;23;20027;-88
2022/12/07 12:27:05;;;;;;;4.10;1.50;;;6.30;99.90;;;;;;6192460;23;20018;-90
2022/12/07 12:30:08;;;;;;;;;;;;;;;;;;;;;
2022/12/07 12:33:01;;;;;;;3.63;1.27;;;6.50;99.90;;;;;;6217058;23;20111;-88
2022/12/07 12:36:25;;;;;;;5.97;2.35;;;6.30;99.90;;;;;;6191548;23;20171;-87
2022/12/07 12:42:41;;;;;;;6.30;1.30;;;6.40;99.90;;;;;;6217587;23;20497;-89
2022/12/07 12:45:47;;;;;;;;;;;;;;;;;;;;;
2022/12/07 12:48:40;;;;;;;3.22;1.30;;;6.10;99.90;;;;;;6217722;23;20024;-92
2022/12/07 12:51:41;;;;;;;3.63;1.05;;;6.50;99.90;;;;;;6191527;23;20020;-90
2022/12/07 12:54:19;;;;;;;3.67;1.02;;;6.40;99.90;;;;;;6191609;22;20162;-88
2022/12/07 12:56:54;;;;;;;4.28;0.90;;;6.20;99.90;;;;;;6190941;23;20043;-92
2022/12/07 12:59:42;;;;;;;5.15;1.20;;;6.50;99.90;;;;;;6192483;23;20016;-89
2022/12/07 13:02:19;;;;;;;;;;;6.20;99.90;;;;;;6193127;23;20127;-88
2022/12/07 13:04:58;;;;;;;;;;;;;;;;;;;;;
2022/12/07 13:07:54;;;;;;;4.47;1.90;;;6.30;99.90;;;;;;6217001;23;20016;-91
2022/12/07 13:10:27;;;;;;;7.00;1.58;;;5.30;99.90;;;;;;6190727;23;20046;-88
2022/12/07 13:13:24;;;;;;;4.07;1.30;;;6.90;99.90;;;;;;6189528;23;20028;-87
2022/12/07 13:16:06;;;;;;;4.20;1.30;;;6.00;99.90;;;;;;6189235;23;20075;-89
2022/12/07 13:18:32;;;;;;;3.83;0.90;;;6.00;99.90;;;;;;6187801;23;20051;-86
2022/12/07 13:21:07;;;;;;;6.20;1.17;;;7.30;99.90;;;;;;6187623;23;20090;-86
2022/12/07 13:23:45;;;;;;;4.25;1.00;;;6.10;99.90;;;;;;6188916;23;20022;-86
2022/12/07 13:26:37;;;;;;;5.75;1.73;;;6.30;99.90;;;;;;6213766;23;20197;-87
2022/12/07 13:29:14;;;;;;;5.07;0.98;;;6.00;99.90;;;;;;6214914;23;20458;-87
2022/12/07 13:31:50;;;;;;;2.33;0.80;;;6.00;99.90;;;;;;6214437;23;20697;-87
2022/12/07 13:34:37;;;;;;;3.33;0.85;;;5.90;99.90;;;;;;6189542;23;20416;-86
2022/12/07 13:37:21;;;;;;;2.40;0.80;;;5.90;99.90;;;;;;6164232;23;20051;-85
2022/12/07 13:40:01;;;;;;;3.63;1.00;;;5.70;99.90;;;;;;6214213;23;20016;-87
2022/12/07 13:42:32;;;;;;;5.03;1.15;;;5.60;99.90;;;;;;6188634;23;20051;-86
2022/12/07 13:45:02;;;;;;;2.47;0.85;;;5.50;99.90;;;;;;6189795;23;20055;-89
2022/12/07 13:47:55;;;;;;;3.40;1.17;;;6.20;99.90;;;;;;6188681;23;20024;-86
2022/12/07 13:50:27;;;;;;;3.78;1.00;;;5.30;99.90;;;;;;6189625;23;20024;-86
2022/12/07 13:53:13;;;;;;;6.55;0.90;;;5.30;99.90;;;;;;6189261;23;20106;-90
2022/12/07 13:55:47;;;;;;;2.88;1.08;;;6.90;99.90;;;;;;6183180;23;20020;-89
2022/12/07 13:58:19;;;;;;;4.25;1.10;;;6.60;99.90;;;;;;6183487;23;20028;-89
2022/12/07 14:01:08;;;;;;;6.57;2.30;;;5.20;99.90;;;;;;6183833;23;20548;-87
2022/12/07 14:03:35;;;;;;;9.43;3.25;;;4.10;99.90;;;;;;6158633;23;20123;-88
2022/12/07 14:06:22;;;;;;;6.20;2.00;;;5.00;99.90;;;;;;6183627;23;20020;-85
2022/12/07 14:08:51;;;;;;;3.22;1.40;;;4.90;99.90;;;;;;6158883;23;20048;-87
2022/12/07 14:11:30;;;;;;;4.20;1.30;;;4.90;99.90;;;;;;6160021;23;20016;-86
2022/12/07 14:14:06;;;;;;;3.78;1.30;;;5.10;99.90;;;;;;6158860;23;20060;-86
2022/12/07 14:16:34;;;;;;;5.53;1.42;;;5.00;99.90;;;;;;6182536;23;20452;-85
2022/12/07 14:19:04;;;;;;;2.58;1.13;;;5.70;99.90;;;;;;6182721;23;20024;-85
2022/12/07 14:21:36;;;;;;;6.07;1.45;;;6.10;99.90;;;;;;6157954;23;20460;-87
2022/12/07 14:24:26;;;;;;;5.63;1.60;;;6.60;99.90;;;;;;6158450;23;20056;-87
2022/12/07 14:26:56;;;;;;;4.45;1.17;;;4.90;99.90;;;;;;6158059;23;20039;-87
2022/12/07 14:29:25;;;;;;;3.25;1.10;;;5.80;99.90;;;;;;6158678;23;20167;-88
2022/12/07 14:32:28;;;;;;;7.30;1.13;;;5.00;99.90;;;;;;6159262;23;20146;-87